sensor_id;sensor_type;location;lat;lon;timestamp;temperature;humidity
702;DHT22;334;48.808;9.222;2023-05-07T00:00:06;18.40;1.00
702;DHT22;334;48.808;9.222;2023-05-07T00:01:11;18.40;1.00
702;DHT22;334;48.808;9.222;2023-05-07T00:02:13;18.40;1.00
702;DHT22;334;48.808;9.222;2023-05-07T00:03:16;18.40;1.00
702;DHT22;334;48.808;9.222;2023-05-07T00:04:18;18.30;1.00
702;DHT22;334;48.808;9.222;2023-05-07T00:05:20;18.30;1.00
702;DHT22;334;48.808;9.222;2023-05-07T00:06:22;18.30;1.00
702;DHT22;334;48.808;9.222;2023-05-07T00:07:24;18.30;1.00
702;DHT22;334;48.808;9.222;2023-05-07T00:08:26;18.30;1.00
702;DHT22;334;48.808;9.222;2023-05-07T00:09:28;18.30;1.00
702;DHT22;334;48.808;9.222;2023-05-07T00:10:30;18.10;1.00
702;DHT22;334;48.808;9.222;2023-05-07T00:11:32;18.30;1.00
702;DHT22;334;48.808;9.222;2023-05-07T00:12:36;18.30;1.00
702;DHT22;334;48.808;9.222;2023-05-07T00:13:38;18.30;1.00
702;DHT22;334;48.808;9.222;2023-05-07T00:14:41;18.30;1.00
702;DHT22;334;48.808;9.222;2023-05-07T00:15:43;18.30;1.00
702;DHT22;334;48.808;9.222;2023-05-07T00:16:45;18.30;1.00
702;DHT22;334;48.808;9.222;2023-05-07T00:17:46;18.20;1.00
702;DHT22;334;48.808;9.222;2023-05-07T00:18:48;18.30;1.00
702;DHT22;334;48.808;9.222;2023-05-07T00:19:50;18.20;1.00
702;DHT22;334;48.808;9.222;2023-05-07T00:20:52;18.20;1.00
702;DHT22;334;48.808;9.222;2023-05-07T00:21:54;18.20;1.00
702;DHT22;334;48.808;9.222;2023-05-07T00:22:57;18.20;1.00
702;DHT22;334;48.808;9.222;2023-05-07T00:23:59;18.20;1.00
702;DHT22;334;48.808;9.222;2023-05-07T00:25:01;18.20;1.00
702;DHT22;334;48.808;9.222;2023-05-07T00:26:03;18.10;1.00
702;DHT22;334;48.808;9.222;2023-05-07T00:27:05;18.20;1.00
702;DHT22;334;48.808;9.222;2023-05-07T00:28:07;18.10;1.00
702;DHT22;334;48.808;9.222;2023-05-07T00:29:09;18.10;1.00
702;DHT22;334;48.808;9.222;2023-05-07T00:30:11;18.10;1.00
702;DHT22;334;48.808;9.222;2023-05-07T00:31:13;18.10;1.00
702;DHT22;334;48.808;9.222;2023-05-07T00:32:15;18.10;1.00
702;DHT22;334;48.808;9.222;2023-05-07T00:33:17;18.10;1.00
702;DHT22;334;48.808;9.222;2023-05-07T00:34:19;18.10;1.00
702;DHT22;334;48.808;9.222;2023-05-07T00:35:21;18.10;1.00
702;DHT22;334;48.808;9.222;2023-05-07T00:36:22;18.10;1.00
702;DHT22;334;48.808;9.222;2023-05-07T00:37:24;18.10;1.00
702;DHT22;334;48.808;9.222;2023-05-07T00:38:26;18.10;1.00
702;DHT22;334;48.808;9.222;2023-05-07T00:39:28;18.00;1.00
702;DHT22;334;48.808;9.222;2023-05-07T00:40:30;18.20;1.00
702;DHT22;334;48.808;9.222;2023-05-07T00:41:32;18.00;1.00
702;DHT22;334;48.808;9.222;2023-05-07T00:42:33;18.00;1.00
702;DHT22;334;48.808;9.222;2023-05-07T00:43:35;18.00;1.00
702;DHT22;334;48.808;9.222;2023-05-07T00:44:37;18.00;1.00
702;DHT22;334;48.808;9.222;2023-05-07T00:45:39;18.00;1.00
702;DHT22;334;48.808;9.222;2023-05-07T00:46:41;18.00;1.00
702;DHT22;334;48.808;9.222;2023-05-07T00:47:43;17.90;1.00
702;DHT22;334;48.808;9.222;2023-05-07T00:48:45;17.90;1.00
702;DHT22;334;48.808;9.222;2023-05-07T00:49:47;17.90;1.00
702;DHT22;334;48.808;9.222;2023-05-07T00:50:49;17.90;1.00
702;DHT22;334;48.808;9.222;2023-05-07T00:51:50;17.90;1.00
702;DHT22;334;48.808;9.222;2023-05-07T00:52:54;17.90;1.00
702;DHT22;334;48.808;9.222;2023-05-07T00:53:56;17.90;1.00
702;DHT22;334;48.808;9.222;2023-05-07T00:55:01;17.90;1.00
702;DHT22;334;48.808;9.222;2023-05-07T00:56:06;17.90;1.00
702;DHT22;334;48.808;9.222;2023-05-07T00:57:10;17.90;1.00
702;DHT22;334;48.808;9.222;2023-05-07T00:58:12;18.00;1.00
702;DHT22;334;48.808;9.222;2023-05-07T00:59:15;18.00;1.00
702;DHT22;334;48.808;9.222;2023-05-07T01:00:17;17.90;1.00
702;DHT22;334;48.808;9.222;2023-05-07T01:01:19;17.90;1.00
702;DHT22;334;48.808;9.222;2023-05-07T01:02:21;17.80;1.00
702;DHT22;334;48.808;9.222;2023-05-07T01:03:23;17.80;1.00
702;DHT22;334;48.808;9.222;2023-05-07T01:04:26;17.80;1.00
702;DHT22;334;48.808;9.222;2023-05-07T01:05:29;17.60;1.00
702;DHT22;334;48.808;9.222;2023-05-07T01:06:33;17.80;1.00
702;DHT22;334;48.808;9.222;2023-05-07T01:07:35;17.80;1.00
702;DHT22;334;48.808;9.222;2023-05-07T01:08:39;17.80;1.00
702;DHT22;334;48.808;9.222;2023-05-07T01:09:42;17.80;1.00
702;DHT22;334;48.808;9.222;2023-05-07T01:10:45;17.80;1.00
702;DHT22;334;48.808;9.222;2023-05-07T01:11:49;17.80;1.00
702;DHT22;334;48.808;9.222;2023-05-07T01:12:53;17.80;1.00
702;DHT22;334;48.808;9.222;2023-05-07T01:13:56;17.80;1.00
702;DHT22;334;48.808;9.222;2023-05-07T01:15:02;17.80;1.00
702;DHT22;334;48.808;9.222;2023-05-07T01:16:04;17.80;1.00
702;DHT22;334;48.808;9.222;2023-05-07T01:17:06;17.80;1.00
702;DHT22;334;48.808;9.222;2023-05-07T01:18:10;17.70;1.00
702;DHT22;334;48.808;9.222;2023-05-07T01:19:12;17.70;1.00
702;DHT22;334;48.808;9.222;2023-05-07T01:20:15;17.70;1.00
702;DHT22;334;48.808;9.222;2023-05-07T01:21:25;17.60;1.00
702;DHT22;334;48.808;9.222;2023-05-07T01:22:35;17.60;1.00
702;DHT22;334;48.808;9.222;2023-05-07T01:23:41;17.60;1.00
702;DHT22;334;48.808;9.222;2023-05-07T01:24:43;17.60;1.00
702;DHT22;334;48.808;9.222;2023-05-07T01:25:52;17.60;1.00
702;DHT22;334;48.808;9.222;2023-05-07T01:26:54;17.60;1.00
702;DHT22;334;48.808;9.222;2023-05-07T01:27:56;17.60;1.00
702;DHT22;334;48.808;9.222;2023-05-07T01:28:58;17.50;1.00
702;DHT22;334;48.808;9.222;2023-05-07T01:30:00;17.60;1.00
702;DHT22;334;48.808;9.222;2023-05-07T01:31:03;17.50;1.00
702;DHT22;334;48.808;9.222;2023-05-07T01:32:06;17.50;1.00
702;DHT22;334;48.808;9.222;2023-05-07T01:33:11;17.50;1.00
702;DHT22;334;48.808;9.222;2023-05-07T01:34:16;17.50;1.00
702;DHT22;334;48.808;9.222;2023-05-07T01:35:21;17.60;1.00
702;DHT22;334;48.808;9.222;2023-05-07T01:36:25;17.60;1.00
702;DHT22;334;48.808;9.222;2023-05-07T01:37:29;17.60;1.00
702;DHT22;334;48.808;9.222;2023-05-07T01:38:32;17.60;1.00
702;DHT22;334;48.808;9.222;2023-05-07T01:39:35;17.80;1.00
702;DHT22;334;48.808;9.222;2023-05-07T01:40:38;17.50;1.00
702;DHT22;334;48.808;9.222;2023-05-07T01:41:40;17.50;1.00
702;DHT22;334;48.808;9.222;2023-05-07T01:42:46;17.70;1.00
702;DHT22;334;48.808;9.222;2023-05-07T01:43:50;17.50;1.00
702;DHT22;334;48.808;9.222;2023-05-07T01:44:53;17.50;1.00
702;DHT22;334;48.808;9.222;2023-05-07T01:45:55;17.50;1.00
702;DHT22;334;48.808;9.222;2023-05-07T01:46:58;17.50;1.00
702;DHT22;334;48.808;9.222;2023-05-07T01:48:02;17.40;1.00
702;DHT22;334;48.808;9.222;2023-05-07T01:49:05;17.40;1.00
702;DHT22;334;48.808;9.222;2023-05-07T01:50:07;17.40;1.00
702;DHT22;334;48.808;9.222;2023-05-07T01:51:12;17.40;1.00
702;DHT22;334;48.808;9.222;2023-05-07T01:52:14;17.30;1.00
702;DHT22;334;48.808;9.222;2023-05-07T01:53:16;17.30;1.00
702;DHT22;334;48.808;9.222;2023-05-07T01:54:18;17.30;1.00
702;DHT22;334;48.808;9.222;2023-05-07T01:55:20;17.30;1.00
702;DHT22;334;48.808;9.222;2023-05-07T01:56:22;17.30;1.00
702;DHT22;334;48.808;9.222;2023-05-07T01:57:24;17.30;1.00
702;DHT22;334;48.808;9.222;2023-05-07T01:58:25;17.30;1.00
702;DHT22;334;48.808;9.222;2023-05-07T01:59:27;17.30;1.00
702;DHT22;334;48.808;9.222;2023-05-07T02:00:29;17.30;1.00
702;DHT22;334;48.808;9.222;2023-05-07T02:01:31;17.30;1.00
702;DHT22;334;48.808;9.222;2023-05-07T02:02:33;17.30;1.00
702;DHT22;334;48.808;9.222;2023-05-07T02:03:35;17.30;1.00
702;DHT22;334;48.808;9.222;2023-05-07T02:04:37;17.20;1.00
702;DHT22;334;48.808;9.222;2023-05-07T02:05:41;17.20;1.00
702;DHT22;334;48.808;9.222;2023-05-07T02:06:43;17.20;1.00
702;DHT22;334;48.808;9.222;2023-05-07T02:07:45;17.20;1.00
702;DHT22;334;48.808;9.222;2023-05-07T02:08:47;17.20;1.00
702;DHT22;334;48.808;9.222;2023-05-07T02:09:49;17.20;1.00
702;DHT22;334;48.808;9.222;2023-05-07T02:10:51;17.20;1.00
702;DHT22;334;48.808;9.222;2023-05-07T02:11:55;17.20;1.00
702;DHT22;334;48.808;9.222;2023-05-07T02:12:57;17.20;1.00
702;DHT22;334;48.808;9.222;2023-05-07T02:13:59;17.20;1.00
702;DHT22;334;48.808;9.222;2023-05-07T02:15:01;17.20;1.00
702;DHT22;334;48.808;9.222;2023-05-07T02:16:03;17.20;1.00
702;DHT22;334;48.808;9.222;2023-05-07T02:17:06;17.20;1.00
702;DHT22;334;48.808;9.222;2023-05-07T02:18:08;17.30;1.00
702;DHT22;334;48.808;9.222;2023-05-07T02:19:13;17.20;1.00
702;DHT22;334;48.808;9.222;2023-05-07T02:20:15;17.20;1.00
702;DHT22;334;48.808;9.222;2023-05-07T02:21:17;17.20;1.00
702;DHT22;334;48.808;9.222;2023-05-07T02:22:18;17.20;1.00
702;DHT22;334;48.808;9.222;2023-05-07T02:23:20;17.20;1.00
702;DHT22;334;48.808;9.222;2023-05-07T02:24:22;17.20;1.00
702;DHT22;334;48.808;9.222;2023-05-07T02:25:24;17.20;1.00
702;DHT22;334;48.808;9.222;2023-05-07T02:26:26;17.30;1.00
702;DHT22;334;48.808;9.222;2023-05-07T02:27:28;17.20;1.00
702;DHT22;334;48.808;9.222;2023-05-07T02:28:32;17.20;1.00
702;DHT22;334;48.808;9.222;2023-05-07T02:29:36;17.20;1.00
702;DHT22;334;48.808;9.222;2023-05-07T02:30:39;17.20;1.00
702;DHT22;334;48.808;9.222;2023-05-07T02:31:41;17.30;1.00
702;DHT22;334;48.808;9.222;2023-05-07T02:32:44;17.20;1.00
702;DHT22;334;48.808;9.222;2023-05-07T02:33:47;17.20;1.00
702;DHT22;334;48.808;9.222;2023-05-07T02:34:50;17.10;1.00
702;DHT22;334;48.808;9.222;2023-05-07T02:35:53;17.30;1.00
702;DHT22;334;48.808;9.222;2023-05-07T02:36:54;17.10;1.00
702;DHT22;334;48.808;9.222;2023-05-07T02:37:57;17.10;1.00
702;DHT22;334;48.808;9.222;2023-05-07T02:38:58;17.10;1.00
702;DHT22;334;48.808;9.222;2023-05-07T02:40:00;17.10;1.00
702;DHT22;334;48.808;9.222;2023-05-07T02:41:02;17.10;1.00
702;DHT22;334;48.808;9.222;2023-05-07T02:42:04;17.00;1.00
702;DHT22;334;48.808;9.222;2023-05-07T02:43:08;17.00;1.00
702;DHT22;334;48.808;9.222;2023-05-07T02:44:10;17.00;1.00
702;DHT22;334;48.808;9.222;2023-05-07T02:45:12;17.00;1.00
702;DHT22;334;48.808;9.222;2023-05-07T02:46:14;17.00;1.00
702;DHT22;334;48.808;9.222;2023-05-07T02:47:17;17.00;1.00
702;DHT22;334;48.808;9.222;2023-05-07T02:48:19;17.00;1.00
702;DHT22;334;48.808;9.222;2023-05-07T02:49:21;17.00;1.00
702;DHT22;334;48.808;9.222;2023-05-07T02:50:22;17.00;1.00
702;DHT22;334;48.808;9.222;2023-05-07T02:51:26;17.00;1.00
702;DHT22;334;48.808;9.222;2023-05-07T02:52:28;17.00;1.00
702;DHT22;334;48.808;9.222;2023-05-07T02:53:30;17.00;1.00
702;DHT22;334;48.808;9.222;2023-05-07T02:54:32;16.90;1.00
702;DHT22;334;48.808;9.222;2023-05-07T02:55:34;17.00;1.00
702;DHT22;334;48.808;9.222;2023-05-07T02:56:36;16.90;1.00
702;DHT22;334;48.808;9.222;2023-05-07T02:57:38;16.90;1.00
702;DHT22;334;48.808;9.222;2023-05-07T02:58:40;16.90;1.00
702;DHT22;334;48.808;9.222;2023-05-07T02:59:42;16.90;1.00
702;DHT22;334;48.808;9.222;2023-05-07T03:00:44;16.80;1.00
702;DHT22;334;48.808;9.222;2023-05-07T03:01:46;16.80;1.00
702;DHT22;334;48.808;9.222;2023-05-07T03:02:48;16.80;1.00
702;DHT22;334;48.808;9.222;2023-05-07T03:03:50;16.70;1.00
702;DHT22;334;48.808;9.222;2023-05-07T03:04:52;16.80;1.00
702;DHT22;334;48.808;9.222;2023-05-07T03:05:54;16.80;1.00
702;DHT22;334;48.808;9.222;2023-05-07T03:06:55;16.80;1.00
702;DHT22;334;48.808;9.222;2023-05-07T03:07:57;16.80;1.00
702;DHT22;334;48.808;9.222;2023-05-07T03:08:59;16.80;1.00
702;DHT22;334;48.808;9.222;2023-05-07T03:10:01;16.80;1.00
702;DHT22;334;48.808;9.222;2023-05-07T03:11:03;16.80;1.00
702;DHT22;334;48.808;9.222;2023-05-07T03:12:05;16.80;1.00
702;DHT22;334;48.808;9.222;2023-05-07T03:13:07;16.80;1.00
702;DHT22;334;48.808;9.222;2023-05-07T03:14:09;16.80;1.00
702;DHT22;334;48.808;9.222;2023-05-07T03:15:11;16.80;1.00
702;DHT22;334;48.808;9.222;2023-05-07T03:16:14;16.80;1.00
702;DHT22;334;48.808;9.222;2023-05-07T03:17:16;16.80;1.00
702;DHT22;334;48.808;9.222;2023-05-07T03:18:18;16.80;1.00
702;DHT22;334;48.808;9.222;2023-05-07T03:19:20;16.80;1.00
702;DHT22;334;48.808;9.222;2023-05-07T03:20:22;16.80;1.00
702;DHT22;334;48.808;9.222;2023-05-07T03:21:24;16.80;1.00
702;DHT22;334;48.808;9.222;2023-05-07T03:22:25;16.80;1.00
702;DHT22;334;48.808;9.222;2023-05-07T03:23:27;16.80;1.00
702;DHT22;334;48.808;9.222;2023-05-07T03:24:29;16.80;1.00
702;DHT22;334;48.808;9.222;2023-05-07T03:25:32;16.70;1.00
702;DHT22;334;48.808;9.222;2023-05-07T03:26:33;16.60;1.00
702;DHT22;334;48.808;9.222;2023-05-07T03:27:36;16.60;1.00
702;DHT22;334;48.808;9.222;2023-05-07T03:28:38;16.60;1.00
702;DHT22;334;48.808;9.222;2023-05-07T03:29:39;16.60;1.00
702;DHT22;334;48.808;9.222;2023-05-07T03:30:41;16.60;1.00
702;DHT22;334;48.808;9.222;2023-05-07T03:31:43;16.50;1.00
702;DHT22;334;48.808;9.222;2023-05-07T03:32:45;16.50;1.00
702;DHT22;334;48.808;9.222;2023-05-07T03:33:54;16.50;1.00
702;DHT22;334;48.808;9.222;2023-05-07T03:34:56;16.50;1.00
702;DHT22;334;48.808;9.222;2023-05-07T03:35:58;16.50;1.00
702;DHT22;334;48.808;9.222;2023-05-07T03:37:00;16.50;1.00
702;DHT22;334;48.808;9.222;2023-05-07T03:38:01;16.50;1.00
702;DHT22;334;48.808;9.222;2023-05-07T03:39:03;16.50;1.00
702;DHT22;334;48.808;9.222;2023-05-07T03:40:06;16.50;1.00
702;DHT22;334;48.808;9.222;2023-05-07T03:41:08;16.50;1.00
702;DHT22;334;48.808;9.222;2023-05-07T03:42:09;16.50;1.00
702;DHT22;334;48.808;9.222;2023-05-07T03:43:11;16.50;1.00
702;DHT22;334;48.808;9.222;2023-05-07T03:44:13;16.40;1.00
702;DHT22;334;48.808;9.222;2023-05-07T03:45:15;16.40;1.00
702;DHT22;334;48.808;9.222;2023-05-07T03:46:17;16.40;1.00
702;DHT22;334;48.808;9.222;2023-05-07T03:47:19;16.40;1.00
702;DHT22;334;48.808;9.222;2023-05-07T03:48:21;16.40;1.00
702;DHT22;334;48.808;9.222;2023-05-07T03:49:23;16.40;1.00
702;DHT22;334;48.808;9.222;2023-05-07T03:50:24;16.40;1.00
702;DHT22;334;48.808;9.222;2023-05-07T03:51:26;16.40;1.00
702;DHT22;334;48.808;9.222;2023-05-07T03:52:28;16.40;1.00
702;DHT22;334;48.808;9.222;2023-05-07T03:53:30;16.40;1.00
702;DHT22;334;48.808;9.222;2023-05-07T03:54:32;16.40;1.00
702;DHT22;334;48.808;9.222;2023-05-07T03:55:33;16.40;1.00
702;DHT22;334;48.808;9.222;2023-05-07T03:56:35;16.40;1.00
702;DHT22;334;48.808;9.222;2023-05-07T03:57:37;16.30;1.00
702;DHT22;334;48.808;9.222;2023-05-07T03:58:39;16.40;1.00
702;DHT22;334;48.808;9.222;2023-05-07T03:59:41;16.40;1.00
702;DHT22;334;48.808;9.222;2023-05-07T04:00:43;16.40;1.00
702;DHT22;334;48.808;9.222;2023-05-07T04:01:44;16.40;1.00
702;DHT22;334;48.808;9.222;2023-05-07T04:02:47;16.40;1.00
702;DHT22;334;48.808;9.222;2023-05-07T04:03:49;16.40;1.00
702;DHT22;334;48.808;9.222;2023-05-07T04:04:52;16.40;1.00
702;DHT22;334;48.808;9.222;2023-05-07T04:05:53;16.40;1.00
702;DHT22;334;48.808;9.222;2023-05-07T04:06:55;16.40;1.00
702;DHT22;334;48.808;9.222;2023-05-07T04:08:00;16.40;1.00
702;DHT22;334;48.808;9.222;2023-05-07T04:09:03;16.30;1.00
702;DHT22;334;48.808;9.222;2023-05-07T04:10:05;16.30;1.00
702;DHT22;334;48.808;9.222;2023-05-07T04:11:07;16.30;1.00
702;DHT22;334;48.808;9.222;2023-05-07T04:12:09;16.30;1.00
702;DHT22;334;48.808;9.222;2023-05-07T04:13:10;16.30;1.00
702;DHT22;334;48.808;9.222;2023-05-07T04:14:12;16.30;1.00
702;DHT22;334;48.808;9.222;2023-05-07T04:15:14;16.30;1.00
702;DHT22;334;48.808;9.222;2023-05-07T04:16:16;16.30;1.00
702;DHT22;334;48.808;9.222;2023-05-07T04:17:18;16.30;1.00
702;DHT22;334;48.808;9.222;2023-05-07T04:18:19;16.30;1.00
702;DHT22;334;48.808;9.222;2023-05-07T04:19:21;16.30;1.00
702;DHT22;334;48.808;9.222;2023-05-07T04:20:23;16.30;1.00
702;DHT22;334;48.808;9.222;2023-05-07T04:21:25;16.30;1.00
702;DHT22;334;48.808;9.222;2023-05-07T04:22:27;16.20;1.00
702;DHT22;334;48.808;9.222;2023-05-07T04:23:29;16.30;1.00
702;DHT22;334;48.808;9.222;2023-05-07T04:24:32;16.20;1.00
702;DHT22;334;48.808;9.222;2023-05-07T04:25:34;16.20;1.00
702;DHT22;334;48.808;9.222;2023-05-07T04:26:36;16.20;1.00
702;DHT22;334;48.808;9.222;2023-05-07T04:27:38;16.30;1.00
702;DHT22;334;48.808;9.222;2023-05-07T04:28:39;16.30;1.00
702;DHT22;334;48.808;9.222;2023-05-07T04:29:42;16.30;1.00
702;DHT22;334;48.808;9.222;2023-05-07T04:30:44;16.30;1.00
702;DHT22;334;48.808;9.222;2023-05-07T04:31:46;16.30;1.00
702;DHT22;334;48.808;9.222;2023-05-07T04:32:48;16.20;1.00
702;DHT22;334;48.808;9.222;2023-05-07T04:33:50;16.30;1.00
702;DHT22;334;48.808;9.222;2023-05-07T04:34:53;16.20;1.00
702;DHT22;334;48.808;9.222;2023-05-07T04:35:54;16.20;1.00
702;DHT22;334;48.808;9.222;2023-05-07T04:36:58;16.30;1.00
702;DHT22;334;48.808;9.222;2023-05-07T04:38:02;16.30;1.00
702;DHT22;334;48.808;9.222;2023-05-07T04:39:04;16.30;1.00
702;DHT22;334;48.808;9.222;2023-05-07T04:40:06;16.40;1.10
702;DHT22;334;48.808;9.222;2023-05-07T04:41:09;16.30;1.00
702;DHT22;334;48.808;9.222;2023-05-07T04:42:15;16.30;1.00
702;DHT22;334;48.808;9.222;2023-05-07T04:43:17;16.30;1.00
702;DHT22;334;48.808;9.222;2023-05-07T04:44:19;16.30;1.00
702;DHT22;334;48.808;9.222;2023-05-07T04:45:20;16.30;1.00
702;DHT22;334;48.808;9.222;2023-05-07T04:46:22;16.20;1.20
702;DHT22;334;48.808;9.222;2023-05-07T04:47:25;16.20;1.40
702;DHT22;334;48.808;9.222;2023-05-07T04:48:27;16.20;1.30
702;DHT22;334;48.808;9.222;2023-05-07T04:49:30;16.30;1.50
702;DHT22;334;48.808;9.222;2023-05-07T04:50:32;16.30;2.00
702;DHT22;334;48.808;9.222;2023-05-07T04:51:34;16.30;1.30
702;DHT22;334;48.808;9.222;2023-05-07T04:52:35;16.30;1.50
702;DHT22;334;48.808;9.222;2023-05-07T04:53:37;16.30;1.50
702;DHT22;334;48.808;9.222;2023-05-07T04:54:39;16.30;1.30
702;DHT22;334;48.808;9.222;2023-05-07T04:55:41;16.30;1.30
702;DHT22;334;48.808;9.222;2023-05-07T04:56:43;16.30;1.30
702;DHT22;334;48.808;9.222;2023-05-07T04:57:44;16.40;1.30
702;DHT22;334;48.808;9.222;2023-05-07T04:58:46;16.30;1.20
702;DHT22;334;48.808;9.222;2023-05-07T04:59:48;16.40;1.10
702;DHT22;334;48.808;9.222;2023-05-07T05:00:50;16.40;1.00
702;DHT22;334;48.808;9.222;2023-05-07T05:01:52;16.40;1.00
702;DHT22;334;48.808;9.222;2023-05-07T05:02:54;16.40;1.00
702;DHT22;334;48.808;9.222;2023-05-07T05:03:56;16.40;1.00
702;DHT22;334;48.808;9.222;2023-05-07T05:04:57;16.40;1.00
702;DHT22;334;48.808;9.222;2023-05-07T05:06:00;16.50;1.00
702;DHT22;334;48.808;9.222;2023-05-07T05:07:02;16.50;1.00
702;DHT22;334;48.808;9.222;2023-05-07T05:08:07;16.50;1.00
702;DHT22;334;48.808;9.222;2023-05-07T05:09:09;16.50;1.00
702;DHT22;334;48.808;9.222;2023-05-07T05:10:11;16.50;1.00
702;DHT22;334;48.808;9.222;2023-05-07T05:11:13;16.50;1.00
702;DHT22;334;48.808;9.222;2023-05-07T05:12:15;16.50;1.00
702;DHT22;334;48.808;9.222;2023-05-07T05:13:17;16.50;1.00
702;DHT22;334;48.808;9.222;2023-05-07T05:14:20;16.50;1.00
702;DHT22;334;48.808;9.222;2023-05-07T05:15:22;16.50;1.00
702;DHT22;334;48.808;9.222;2023-05-07T05:16:23;16.50;1.00
702;DHT22;334;48.808;9.222;2023-05-07T05:17:25;16.50;1.00
702;DHT22;334;48.808;9.222;2023-05-07T05:18:27;16.50;1.30
702;DHT22;334;48.808;9.222;2023-05-07T05:19:29;16.50;1.00
702;DHT22;334;48.808;9.222;2023-05-07T05:20:31;16.50;1.00
702;DHT22;334;48.808;9.222;2023-05-07T05:21:32;16.50;1.00
702;DHT22;334;48.808;9.222;2023-05-07T05:22:34;16.50;1.00
702;DHT22;334;48.808;9.222;2023-05-07T05:23:36;16.50;1.00
702;DHT22;334;48.808;9.222;2023-05-07T05:24:38;16.70;1.00
702;DHT22;334;48.808;9.222;2023-05-07T05:25:39;16.50;1.00
702;DHT22;334;48.808;9.222;2023-05-07T05:26:42;16.60;1.00
702;DHT22;334;48.808;9.222;2023-05-07T05:27:43;16.60;1.00
702;DHT22;334;48.808;9.222;2023-05-07T05:28:45;16.60;1.00
702;DHT22;334;48.808;9.222;2023-05-07T05:29:47;16.60;1.00
702;DHT22;334;48.808;9.222;2023-05-07T05:30:49;16.70;1.00
702;DHT22;334;48.808;9.222;2023-05-07T05:31:50;16.70;1.00
702;DHT22;334;48.808;9.222;2023-05-07T05:32:52;16.70;1.00
702;DHT22;334;48.808;9.222;2023-05-07T05:33:54;16.70;1.00
702;DHT22;334;48.808;9.222;2023-05-07T05:34:56;16.70;1.00
702;DHT22;334;48.808;9.222;2023-05-07T05:35:59;16.80;1.00
702;DHT22;334;48.808;9.222;2023-05-07T05:37:01;16.80;1.00
702;DHT22;334;48.808;9.222;2023-05-07T05:38:03;17.10;1.00
702;DHT22;334;48.808;9.222;2023-05-07T05:39:05;16.90;1.00
702;DHT22;334;48.808;9.222;2023-05-07T05:40:07;16.90;1.00
702;DHT22;334;48.808;9.222;2023-05-07T05:41:10;16.90;1.00
702;DHT22;334;48.808;9.222;2023-05-07T05:42:12;17.10;1.00
702;DHT22;334;48.808;9.222;2023-05-07T05:43:14;16.90;1.00
702;DHT22;334;48.808;9.222;2023-05-07T05:44:16;16.90;1.00
702;DHT22;334;48.808;9.222;2023-05-07T05:45:17;17.00;1.00
702;DHT22;334;48.808;9.222;2023-05-07T05:46:19;17.00;1.00
702;DHT22;334;48.808;9.222;2023-05-07T05:47:22;17.10;1.00
702;DHT22;334;48.808;9.222;2023-05-07T05:48:24;17.20;1.00
702;DHT22;334;48.808;9.222;2023-05-07T05:49:26;17.20;1.00
702;DHT22;334;48.808;9.222;2023-05-07T05:50:28;17.30;1.00
702;DHT22;334;48.808;9.222;2023-05-07T05:51:29;17.40;1.00
702;DHT22;334;48.808;9.222;2023-05-07T05:52:32;17.60;1.00
702;DHT22;334;48.808;9.222;2023-05-07T05:53:33;17.70;1.00
702;DHT22;334;48.808;9.222;2023-05-07T05:54:35;17.80;1.00
702;DHT22;334;48.808;9.222;2023-05-07T05:55:37;17.90;1.00
702;DHT22;334;48.808;9.222;2023-05-07T05:56:39;18.00;1.00
702;DHT22;334;48.808;9.222;2023-05-07T05:57:41;18.00;1.00
702;DHT22;334;48.808;9.222;2023-05-07T05:58:43;18.00;1.00
702;DHT22;334;48.808;9.222;2023-05-07T05:59:45;18.00;1.00
702;DHT22;334;48.808;9.222;2023-05-07T06:00:48;18.00;1.00
702;DHT22;334;48.808;9.222;2023-05-07T06:01:49;18.00;1.00
702;DHT22;334;48.808;9.222;2023-05-07T06:02:51;18.00;1.00
702;DHT22;334;48.808;9.222;2023-05-07T06:03:53;18.00;1.00
702;DHT22;334;48.808;9.222;2023-05-07T06:04:55;18.00;1.00
702;DHT22;334;48.808;9.222;2023-05-07T06:05:57;18.10;1.00
702;DHT22;334;48.808;9.222;2023-05-07T06:06:58;18.10;1.00
702;DHT22;334;48.808;9.222;2023-05-07T06:08:00;18.10;1.00
702;DHT22;334;48.808;9.222;2023-05-07T06:09:02;18.10;1.00
702;DHT22;334;48.808;9.222;2023-05-07T06:10:04;18.10;1.00
702;DHT22;334;48.808;9.222;2023-05-07T06:11:06;18.10;1.00
702;DHT22;334;48.808;9.222;2023-05-07T06:12:08;18.10;1.00
702;DHT22;334;48.808;9.222;2023-05-07T06:13:10;18.10;1.00
702;DHT22;334;48.808;9.222;2023-05-07T06:14:12;18.10;1.00
702;DHT22;334;48.808;9.222;2023-05-07T06:15:13;18.20;1.00
702;DHT22;334;48.808;9.222;2023-05-07T06:16:16;18.30;1.00
702;DHT22;334;48.808;9.222;2023-05-07T06:17:18;18.30;1.00
702;DHT22;334;48.808;9.222;2023-05-07T06:18:22;18.30;1.00
702;DHT22;334;48.808;9.222;2023-05-07T06:19:24;18.30;1.00
702;DHT22;334;48.808;9.222;2023-05-07T06:20:28;18.40;1.00
702;DHT22;334;48.808;9.222;2023-05-07T06:21:29;18.40;1.00
702;DHT22;334;48.808;9.222;2023-05-07T06:22:32;18.40;1.00
702;DHT22;334;48.808;9.222;2023-05-07T06:23:34;18.30;1.00
702;DHT22;334;48.808;9.222;2023-05-07T06:24:35;18.30;1.00
702;DHT22;334;48.808;9.222;2023-05-07T06:25:38;18.20;1.00
702;DHT22;334;48.808;9.222;2023-05-07T06:26:40;18.20;1.00
702;DHT22;334;48.808;9.222;2023-05-07T06:27:42;18.10;1.00
702;DHT22;334;48.808;9.222;2023-05-07T06:28:44;18.10;1.00
702;DHT22;334;48.808;9.222;2023-05-07T06:29:48;18.10;1.00
702;DHT22;334;48.808;9.222;2023-05-07T06:30:50;18.10;1.00
702;DHT22;334;48.808;9.222;2023-05-07T06:31:53;18.00;1.00
702;DHT22;334;48.808;9.222;2023-05-07T06:32:55;18.10;1.00
702;DHT22;334;48.808;9.222;2023-05-07T06:33:57;18.10;1.00
702;DHT22;334;48.808;9.222;2023-05-07T06:35:00;18.00;1.00
702;DHT22;334;48.808;9.222;2023-05-07T06:36:02;18.00;1.00
702;DHT22;334;48.808;9.222;2023-05-07T06:37:05;18.00;1.00
702;DHT22;334;48.808;9.222;2023-05-07T06:38:07;18.10;1.00
702;DHT22;334;48.808;9.222;2023-05-07T06:39:09;18.10;1.00
702;DHT22;334;48.808;9.222;2023-05-07T06:40:12;18.00;1.00
702;DHT22;334;48.808;9.222;2023-05-07T06:41:14;18.00;1.00
702;DHT22;334;48.808;9.222;2023-05-07T06:42:16;18.00;1.00
702;DHT22;334;48.808;9.222;2023-05-07T06:43:18;18.10;1.00
702;DHT22;334;48.808;9.222;2023-05-07T06:44:20;18.00;1.00
702;DHT22;334;48.808;9.222;2023-05-07T06:45:22;18.00;1.00
702;DHT22;334;48.808;9.222;2023-05-07T06:46:24;18.00;1.00
702;DHT22;334;48.808;9.222;2023-05-07T06:47:26;18.00;1.00
702;DHT22;334;48.808;9.222;2023-05-07T06:48:28;18.00;1.00
702;DHT22;334;48.808;9.222;2023-05-07T06:49:29;18.00;1.00
702;DHT22;334;48.808;9.222;2023-05-07T06:50:32;18.10;1.00
702;DHT22;334;48.808;9.222;2023-05-07T06:51:34;18.10;1.00
702;DHT22;334;48.808;9.222;2023-05-07T06:52:36;18.10;1.00
702;DHT22;334;48.808;9.222;2023-05-07T06:53:38;18.20;1.00
702;DHT22;334;48.808;9.222;2023-05-07T06:54:42;18.20;1.00
702;DHT22;334;48.808;9.222;2023-05-07T06:55:44;18.20;1.00
702;DHT22;334;48.808;9.222;2023-05-07T06:56:46;18.20;1.00
702;DHT22;334;48.808;9.222;2023-05-07T06:57:47;18.30;1.00
702;DHT22;334;48.808;9.222;2023-05-07T06:58:49;18.30;1.00
702;DHT22;334;48.808;9.222;2023-05-07T06:59:51;18.40;1.00
702;DHT22;334;48.808;9.222;2023-05-07T07:00:53;18.40;1.00
702;DHT22;334;48.808;9.222;2023-05-07T07:01:55;18.60;1.00
702;DHT22;334;48.808;9.222;2023-05-07T07:02:57;18.60;1.00
702;DHT22;334;48.808;9.222;2023-05-07T07:03:58;18.60;1.00
702;DHT22;334;48.808;9.222;2023-05-07T07:05:00;18.60;1.00
702;DHT22;334;48.808;9.222;2023-05-07T07:06:02;18.70;1.00
702;DHT22;334;48.808;9.222;2023-05-07T07:07:04;18.80;1.00